Time;durP1;ratioP1;P1;durP2;ratioP2;P2;SDS_P1;SDS_P2;PMS_P1;PMS_P2;Temp;Humidity;BMP_temperature;BMP_pressure;BME280_temperature;BME280_humidity;BME280_pressure;Samples;Min_cycle;Max_cycle;Signal;HPM_P1;HPM_P2
2023/07/08 00:01:55;;;;;;;11.40;4.03;;;21.80;99.90;;;;;;5054618;28;20520;-69
2023/07/08 00:04:21;;;;;;;10.38;3.60;;;21.50;99.90;;;;;;5054815;28;20392;-69
2023/07/08 00:06:47;;;;;;;14.43;4.80;;;21.30;99.90;;;;;;5052419;28;20424;-70
2023/07/08 00:09:13;;;;;;;12.40;4.67;;;21.10;99.90;;;;;;5052323;28;20856;-69
2023/07/08 00:11:38;;;;;;;9.50;3.60;;;21.00;99.90;;;;;;5050448;28;20496;-69
2023/07/08 00:14:04;;;;;;;11.43;3.90;;;20.90;99.90;;;;;;5052575;28;20394;-69
2023/07/08 00:16:30;;;;;;;12.40;4.13;;;20.90;99.90;;;;;;5051181;28;20386;-69
2023/07/08 00:18:55;;;;;;;9.27;3.30;;;20.80;99.90;;;;;;5052356;28;20868;-70
2023/07/08 00:21:21;;;;;;;11.73;4.27;;;20.90;99.90;;;;;;5051410;28;20405;-70
2023/07/08 00:23:50;;;;;;;12.97;4.50;;;20.80;99.90;;;;;;5050818;28;20431;-69
2023/07/08 00:26:25;;;;;;;11.20;4.32;;;20.70;99.90;;;;;;5051037;28;20389;-69
2023/07/08 00:28:51;;;;;;;12.70;4.68;;;20.70;99.90;;;;;;5051421;28;20386;-69
2023/07/08 00:31:16;;;;;;;10.82;4.38;;;20.80;99.90;;;;;;5050706;28;20399;-69
2023/07/08 00:33:42;;;;;;;11.37;4.27;;;20.60;99.90;;;;;;5050968;28;20397;-69
2023/07/08 00:36:13;;;;;;;10.57;4.23;;;20.60;99.90;;;;;;5050323;28;20763;-69
2023/07/08 00:38:44;;;;;;;10.88;3.80;;;20.50;99.90;;;;;;5064017;28;20557;-69
2023/07/08 00:41:23;;;;;;;10.63;4.32;;;20.40;99.90;;;;;;5069730;28;20449;-69
2023/07/08 00:43:58;;;;;;;11.70;4.63;;;20.40;99.90;;;;;;5070735;28;20395;-68
2023/07/08 00:46:29;;;;;;;12.23;3.70;;;20.40;99.90;;;;;;5079881;28;20478;-69
2023/07/08 00:49:06;;;;;;;12.25;4.60;;;20.40;99.90;;;;;;5078108;28;20388;-69
2023/07/08 00:51:40;;;;;;;11.52;3.92;;;20.40;99.90;;;;;;5078466;28;20437;-69
2023/07/08 00:54:13;;;;;;;9.57;3.63;;;20.20;99.90;;;;;;5078473;28;20396;-69
2023/07/08 00:57:02;;;;;;;10.88;4.10;;;20.10;99.90;;;;;;5078588;28;20415;-69
2023/07/08 00:59:38;;;;;;;11.52;3.90;;;20.00;99.90;;;;;;5076130;28;20394;-70
2023/07/08 01:02:13;;;;;;;12.10;4.07;;;19.90;99.90;;;;;;5060700;28;20392;-69
2023/07/08 01:05:00;;;;;;;11.07;4.38;;;19.90;99.90;;;;;;5078272;28;20384;-69
2023/07/08 01:07:32;;;;;;;10.27;4.03;;;19.70;99.90;;;;;;5078147;28;20399;-69
2023/07/08 01:10:03;;;;;;;10.45;3.90;;;19.70;99.90;;;;;;5077993;28;20376;-69
2023/07/08 01:12:39;;;;;;;9.45;3.10;;;19.80;99.90;;;;;;5062133;28;20451;-69
2023/07/08 01:15:08;;;;;;;11.90;4.10;;;19.80;99.90;;;;;;5078918;28;20384;-69
2023/07/08 01:17:34;;;;;;;10.38;4.00;;;19.70;99.90;;;;;;5077425;28;20474;-69
2023/07/08 01:20:05;;;;;;;9.93;4.20;;;19.70;99.90;;;;;;5072604;28;20468;-68
2023/07/08 01:22:32;;;;;;;11.52;4.30;;;19.70;99.90;;;;;;5060309;28;20874;-69
2023/07/08 01:25:03;;;;;;;12.15;4.78;;;19.60;99.90;;;;;;5070411;28;20404;-70
2023/07/08 01:27:31;;;;;;;9.70;3.70;;;19.60;99.90;;;;;;5067872;28;20392;-70
2023/07/08 01:29:58;;;;;;;10.70;3.90;;;19.60;99.90;;;;;;5070055;28;20467;-70
2023/07/08 01:32:24;;;;;;;12.67;4.43;;;19.60;99.90;;;;;;5069916;28;20431;-70
2023/07/08 01:35:00;;;;;;;12.05;4.28;;;19.60;99.90;;;;;;5069377;28;20396;-70
2023/07/08 01:37:41;;;;;;;9.63;3.47;;;19.50;99.90;;;;;;5069810;28;20415;-70
2023/07/08 01:40:19;;;;;;;10.75;4.47;;;19.50;99.90;;;;;;5068950;28;20471;-70
2023/07/08 01:42:45;;;;;;;12.02;4.25;;;19.50;99.90;;;;;;5069608;28;20412;-70
2023/07/08 01:45:15;;;;;;;11.90;4.90;;;19.40;99.90;;;;;;5068872;28;21181;-70
2023/07/08 01:47:45;;;;;;;13.35;4.30;;;19.40;99.90;;;;;;5069032;28;20388;-70
2023/07/08 01:50:11;;;;;;;12.23;4.35;;;19.40;99.90;;;;;;5066671;28;20398;-70
2023/07/08 01:52:38;;;;;;;9.73;3.80;;;19.50;99.90;;;;;;5069173;28;20472;-70
2023/07/08 01:55:04;;;;;;;11.17;4.23;;;19.50;99.90;;;;;;5050835;28;20479;-70
2023/07/08 01:57:29;;;;;;;11.48;4.38;;;19.60;99.90;;;;;;5068807;28;20967;-70
2023/07/08 01:59:55;;;;;;;12.00;4.57;;;19.50;99.90;;;;;;5068880;28;20396;-70
2023/07/08 02:02:22;;;;;;;13.50;4.57;;;19.30;99.90;;;;;;5069386;28;20387;-70
2023/07/08 02:04:47;;;;;;;11.05;4.43;;;19.20;99.90;;;;;;5050713;28;20403;-70
2023/07/08 02:07:13;;;;;;;10.60;4.63;;;19.20;99.90;;;;;;5069439;28;20388;-70
2023/07/08 02:09:38;;;;;;;12.23;4.63;;;19.20;99.90;;;;;;5068659;28;20408;-70
2023/07/08 02:12:04;;;;;;;9.93;4.00;;;19.30;99.90;;;;;;5068500;28;21161;-70
2023/07/08 02:14:30;;;;;;;11.77;4.10;;;19.30;99.90;;;;;;5068285;28;20411;-70
2023/07/08 02:16:55;;;;;;;12.02;4.60;;;19.30;99.90;;;;;;5068214;28;20390;-70
2023/07/08 02:19:22;;;;;;;11.07;4.32;;;19.30;99.90;;;;;;5069247;28;20487;-70
2023/07/08 02:21:47;;;;;;;10.80;4.10;;;19.30;99.90;;;;;;5068602;28;20388;-70
2023/07/08 02:24:13;;;;;;;13.00;4.63;;;19.30;99.90;;;;;;5070021;28;20793;-70
2023/07/08 02:26:38;;;;;;;12.57;4.80;;;19.30;99.90;;;;;;5070027;28;20782;-70
2023/07/08 02:29:04;;;;;;;11.33;4.10;;;19.30;99.90;;;;;;5068620;28;20384;-70
2023/07/08 02:31:29;;;;;;;11.00;3.87;;;19.30;99.90;;;;;;5068521;28;20795;-70
2023/07/08 02:33:55;;;;;;;12.20;4.70;;;19.30;99.90;;;;;;5069493;28;20892;-70
2023/07/08 02:36:21;;;;;;;12.70;4.50;;;19.20;99.90;;;;;;5072507;28;20396;-70
2023/07/08 02:38:46;;;;;;;11.15;4.80;;;19.30;99.90;;;;;;5072109;28;20387;-70
2023/07/08 02:41:12;;;;;;;10.33;4.33;;;19.50;99.90;;;;;;5071912;28;20921;-70
2023/07/08 02:43:38;;;;;;;12.90;4.87;;;19.60;99.90;;;;;;5072729;28;20388;-70
2023/07/08 02:46:04;;;;;;;12.57;4.30;;;19.80;99.90;;;;;;5071751;28;20387;-70
2023/07/08 02:48:29;;;;;;;10.20;3.80;;;20.00;99.90;;;;;;5072175;28;20771;-70
2023/07/08 02:51:05;;;;;;;11.83;4.00;;;20.00;99.90;;;;;;5072455;28;20384;-70
2023/07/08 02:53:31;;;;;;;14.57;4.43;;;20.10;99.90;;;;;;5069850;28;20777;-70
2023/07/08 02:55:57;;;;;;;14.18;4.90;;;20.10;99.90;;;;;;5071761;28;20457;-70
2023/07/08 02:58:23;;;;;;;11.97;4.73;;;20.10;99.90;;;;;;5071010;28;20407;-70
2023/07/08 03:00:53;;;;;;;11.88;4.57;;;20.10;99.90;;;;;;5068025;28;20384;-70
2023/07/08 03:03:18;;;;;;;10.30;3.90;;;20.00;99.90;;;;;;5070485;28;20491;-70
2023/07/08 03:05:52;;;;;;;11.70;4.70;;;19.80;99.90;;;;;;5052757;28;21573;-70
2023/07/08 03:08:18;;;;;;;10.10;3.80;;;19.80;99.90;;;;;;5070666;28;20407;-69
2023/07/08 03:10:47;;;;;;;11.67;4.20;;;19.70;99.90;;;;;;5070240;28;20399;-69
2023/07/08 03:13:13;;;;;;;11.38;3.95;;;19.60;99.90;;;;;;5070595;28;20433;-70
2023/07/08 03:15:38;;;;;;;13.60;4.20;;;19.60;99.90;;;;;;5070255;28;20471;-70
2023/07/08 03:18:05;;;;;;;11.77;4.20;;;19.70;99.90;;;;;;5070287;28;20402;-70
2023/07/08 03:20:33;;;;;;;11.13;4.50;;;19.60;99.90;;;;;;5070502;28;20882;-70
2023/07/08 03:22:58;;;;;;;11.57;4.05;;;19.80;99.90;;;;;;5070420;28;20395;-70
2023/07/08 03:25:24;;;;;;;11.02;4.18;;;19.80;99.90;;;;;;5070783;28;20391;-70
2023/07/08 03:27:50;;;;;;;11.70;5.00;;;19.80;99.90;;;;;;5053138;28;20384;-70
2023/07/08 03:30:15;;;;;;;10.40;4.40;;;19.80;99.90;;;;;;5069819;28;20840;-70
2023/07/08 03:32:41;;;;;;;10.07;3.70;;;19.80;99.90;;;;;;5070961;28;20416;-70
2023/07/08 03:35:08;;;;;;;11.90;4.65;;;19.80;99.90;;;;;;5069917;28;20470;-70
2023/07/08 03:37:33;;;;;;;13.35;4.60;;;19.80;99.90;;;;;;5070397;28;20399;-70
2023/07/08 03:39:59;;;;;;;12.43;4.93;;;19.70;99.90;;;;;;5069980;28;20434;-70
2023/07/08 03:42:24;;;;;;;10.90;4.30;;;19.60;99.90;;;;;;5070257;28;20418;-70
2023/07/08 03:44:50;;;;;;;11.00;4.80;;;19.70;99.90;;;;;;5070395;28;20376;-70
2023/07/08 03:47:15;;;;;;;12.63;4.73;;;19.50;99.90;;;;;;5070105;28;20742;-70
2023/07/08 03:49:41;;;;;;;14.60;4.30;;;19.30;99.90;;;;;;5070135;28;21199;-70
2023/07/08 03:52:14;;;;;;;13.17;4.40;;;19.30;99.90;;;;;;5069934;28;20419;-70
2023/07/08 03:54:41;;;;;;;11.55;4.32;;;19.30;99.90;;;;;;5070053;28;20399;-70
2023/07/08 03:57:06;;;;;;;11.25;4.40;;;19.20;99.90;;;;;;5008522;28;1738248;-70
2023/07/08 03:59:32;;;;;;;11.35;4.72;;;19.20;99.90;;;;;;5070943;28;20521;-70
2023/07/08 04:01:57;;;;;;;10.60;4.30;;;19.20;99.90;;;;;;5070797;28;20765;-70
2023/07/08 04:04:23;;;;;;;11.77;4.80;;;19.20;99.90;;;;;;5053553;28;20396;-70
2023/07/08 04:06:50;;;;;;;12.67;4.63;;;19.30;99.90;;;;;;5068340;28;20718;-69
2023/07/08 04:09:16;;;;;;;11.43;4.43;;;19.40;99.90;;;;;;5052816;28;20406;-70
2023/07/08 04:11:41;;;;;;;12.18;4.78;;;19.50;99.90;;;;;;5070444;28;20424;-70
2023/07/08 04:14:09;;;;;;;15.53;5.30;;;19.60;99.90;;;;;;5070491;28;20384;-70
2023/07/08 04:16:46;;;;;;;14.50;4.30;;;19.80;99.90;;;;;;5071123;28;21064;-70
2023/07/08 04:19:14;;;;;;;12.77;4.60;;;19.80;99.90;;;;;;5068329;28;20612;-70
2023/07/08 04:21:42;;;;;;;10.65;4.32;;;19.80;99.90;;;;;;5070231;28;20457;-70
2023/07/08 04:24:13;;;;;;;12.55;4.65;;;19.90;99.90;;;;;;5069972;28;20395;-70
2023/07/08 04:26:39;;;;;;;16.27;5.50;;;20.00;99.90;;;;;;5070462;28;20430;-70
2023/07/08 04:29:10;;;;;;;13.88;5.00;;;20.20;99.90;;;;;;5070010;28;20449;-68
2023/07/08 04:31:35;;;;;;;11.73;4.00;;;20.30;99.90;;;;;;5069991;28;20882;-68
2023/07/08 04:34:02;;;;;;;13.70;4.72;;;20.30;99.90;;;;;;5070471;28;20457;-69
2023/07/08 04:36:27;;;;;;;9.98;4.78;;;20.40;99.90;;;;;;5069815;28;20392;-69
2023/07/08 04:38:53;;;;;;;11.13;4.40;;;20.60;99.90;;;;;;5070579;28;20398;-69
2023/07/08 04:41:18;;;;;;;16.67;5.13;;;20.70;99.90;;;;;;5070082;28;20375;-69
2023/07/08 04:43:44;;;;;;;10.70;4.53;;;20.80;99.90;;;;;;5069856;28;20998;-69
2023/07/08 04:46:34;;;;;;;13.23;4.70;;;20.90;99.90;;;;;;5067260;28;20426;-69
2023/07/08 04:49:04;;;;;;;17.60;5.50;;;21.10;99.90;;;;;;5068854;28;20397;-69
2023/07/08 04:51:30;;;;;;;13.15;4.25;;;21.20;99.90;;;;;;5067291;28;20399;-69
2023/07/08 04:53:55;;;;;;;12.80;4.70;;;21.40;99.90;;;;;;5070062;28;20470;-69
2023/07/08 04:56:23;;;;;;;12.73;4.90;;;21.60;99.90;;;;;;5069894;28;20433;-69
2023/07/08 04:58:48;;;;;;;11.88;4.65;;;21.70;99.90;;;;;;5069650;28;20445;-69
2023/07/08 05:01:14;;;;;;;10.80;4.30;;;21.90;99.90;;;;;;5070672;28;20903;-69
2023/07/08 05:03:39;;;;;;;15.50;4.50;;;22.00;99.90;;;;;;5071969;28;20391;-69
2023/07/08 05:06:05;;;;;;;12.07;4.97;;;22.00;99.90;;;;;;5071429;28;20392;-70
2023/07/08 05:08:30;;;;;;;15.53;4.80;;;22.00;99.90;;;;;;5069698;28;20889;-69
2023/07/08 05:10:56;;;;;;;10.07;4.57;;;22.10;99.90;;;;;;5069889;28;20483;-69
2023/07/08 05:13:23;;;;;;;14.10;5.30;;;22.10;99.90;;;;;;5070245;28;20573;-70
2023/07/08 05:15:49;;;;;;;12.40;4.50;;;22.00;99.90;;;;;;5070211;28;20467;-69
2023/07/08 05:18:14;;;;;;;11.98;4.50;;;21.80;99.90;;;;;;5069458;28;21327;-69
2023/07/08 05:20:40;;;;;;;12.18;3.92;;;22.00;99.90;;;;;;5069337;28;20439;-69
2023/07/08 05:23:05;;;;;;;11.95;4.40;;;21.80;99.90;;;;;;5069580;28;20391;-69
2023/07/08 05:25:33;;;;;;;15.02;5.63;;;21.90;99.90;;;;;;5051090;28;20484;-69
2023/07/08 05:27:58;;;;;;;12.85;4.60;;;22.20;99.90;;;;;;5069288;28;20872;-69
2023/07/08 05:30:24;;;;;;;14.90;5.00;;;22.40;99.90;;;;;;5070048;28;20478;-69
2023/07/08 05:32:49;;;;;;;14.50;5.27;;;22.70;99.90;;;;;;5069770;28;20415;-69
2023/07/08 05:35:15;;;;;;;16.60;5.13;;;22.80;99.90;;;;;;5070314;28;20426;-69
2023/07/08 05:37:41;;;;;;;11.65;4.65;;;23.10;99.90;;;;;;5069105;28;20403;-70
2023/07/08 05:40:08;;;;;;;14.30;5.40;;;24.10;99.90;;;;;;5069136;28;20464;-70
2023/07/08 05:42:33;;;;;;;11.93;4.60;;;25.60;99.90;;;;;;5069131;28;20536;-70
2023/07/08 05:44:59;;;;;;;12.10;3.97;;;26.60;99.90;;;;;;5069265;28;20466;-71
2023/07/08 05:47:24;;;;;;;10.17;3.93;;;26.70;99.90;;;;;;5069914;28;20390;-70
2023/07/08 05:49:52;;;;;;;12.20;4.60;;;26.50;99.90;;;;;;5063963;28;20719;-71
2023/07/08 05:52:17;;;;;;;12.55;5.00;;;26.20;99.90;;;;;;5069244;28;20415;-70
2023/07/08 05:54:43;;;;;;;14.50;4.30;;;25.70;99.90;;;;;;5068658;28;20403;-70
2023/07/08 05:57:10;;;;;;;11.00;4.57;;;25.30;99.90;;;;;;5069047;28;20793;-70
2023/07/08 05:59:36;;;;;;;13.35;4.70;;;25.00;99.90;;;;;;5069470;28;20380;-70
2023/07/08 06:02:03;;;;;;;11.82;4.30;;;24.80;99.90;;;;;;5069099;28;20404;-70
2023/07/08 06:04:28;;;;;;;14.38;4.85;;;24.70;99.90;;;;;;5074657;28;20399;-69
2023/07/08 06:06:54;;;;;;;11.18;3.85;;;25.00;99.90;;;;;;5073636;28;20380;-69
2023/07/08 06:09:19;;;;;;;11.65;4.45;;;25.20;99.90;;;;;;5071824;28;20411;-69
2023/07/08 06:11:46;;;;;;;11.38;4.13;;;25.70;99.90;;;;;;5076720;28;20446;-70
2023/07/08 06:14:12;;;;;;;11.10;4.15;;;26.30;99.90;;;;;;5058163;28;20415;-69
2023/07/08 06:16:38;;;;;;;12.67;4.40;;;27.90;99.90;;;;;;5074002;28;20758;-70
2023/07/08 06:19:04;;;;;;;10.38;4.40;;;30.00;99.90;;;;;;5073698;28;20788;-71
2023/07/08 06:21:29;;;;;;;13.95;5.10;;;31.90;99.90;;;;;;5072936;28;20870;-71
2023/07/08 06:23:55;;;;;;;13.67;4.40;;;33.30;99.90;;;;;;5072634;28;20430;-71
2023/07/08 06:26:20;;;;;;;10.70;4.30;;;34.20;99.90;;;;;;5073252;28;20408;-71
2023/07/08 06:28:46;;;;;;;10.00;4.53;;;35.00;99.90;;;;;;5072737;28;20389;-71
2023/07/08 06:31:11;;;;;;;11.38;4.50;;;36.00;99.90;;;;;;5072400;28;20386;-71
2023/07/08 06:33:37;;;;;;;13.60;4.37;;;35.90;99.90;;;;;;5075442;28;20438;-71
2023/07/08 06:36:02;;;;;;;11.32;4.00;;;35.80;99.90;;;;;;5073756;28;20398;-70
2023/07/08 06:38:28;;;;;;;9.85;3.85;;;35.70;99.90;;;;;;5076473;28;20427;-70
2023/07/08 06:40:53;;;;;;;9.87;3.90;;;35.30;99.90;;;;;;5073447;28;20865;-70
2023/07/08 06:43:19;;;;;;;9.45;3.58;;;34.90;99.90;;;;;;5074131;28;20810;-70
2023/07/08 06:45:44;;;;;;;10.50;3.93;;;34.20;99.90;;;;;;5076923;28;20514;-70
2023/07/08 06:48:10;;;;;;;9.47;3.37;;;33.80;99.90;;;;;;5073694;28;20495;-70
2023/07/08 06:50:36;;;;;;;9.73;3.70;;;33.20;99.90;;;;;;5072615;28;20395;-70
2023/07/08 06:53:01;;;;;;;9.40;3.93;;;33.90;99.90;;;;;;5059122;28;20424;-70
2023/07/08 06:55:27;;;;;;;9.80;3.10;;;34.70;99.90;;;;;;5053151;28;20386;-70
2023/07/08 06:57:52;;;;;;;9.55;3.50;;;34.60;99.90;;;;;;5053385;28;20410;-71
2023/07/08 07:00:18;;;;;;;9.20;3.30;;;34.90;99.90;;;;;;5067677;28;20704;-71
2023/07/08 07:02:44;;;;;;;11.23;3.80;;;35.30;99.90;;;;;;5072576;28;20388;-71
2023/07/08 07:05:09;;;;;;;9.38;3.40;;;34.90;99.90;;;;;;5073692;28;20465;-70
2023/07/08 07:07:38;;;;;;;10.93;4.22;;;34.80;99.90;;;;;;5072349;28;20414;-70
2023/07/08 07:10:05;;;;;;;10.53;3.30;;;33.70;99.90;;;;;;5065819;28;20393;-70
2023/07/08 07:12:31;;;;;;;10.40;3.90;;;32.50;99.90;;;;;;5052093;28;20822;-69
2023/07/08 07:14:56;;;;;;;10.43;3.60;;;31.50;99.90;;;;;;5059983;28;20473;-71
2023/07/08 07:17:25;;;;;;;11.10;4.00;;;30.80;99.90;;;;;;5071338;28;20449;-70
2023/07/08 07:19:50;;;;;;;11.38;4.00;;;30.30;99.90;;;;;;5072373;28;20391;-70
2023/07/08 07:22:16;;;;;;;10.05;3.35;;;29.90;99.90;;;;;;5071098;28;20390;-70
2023/07/08 07:24:42;;;;;;;10.50;3.40;;;30.20;99.90;;;;;;5072222;28;20399;-70
2023/07/08 07:27:09;;;;;;;10.63;3.80;;;30.50;99.90;;;;;;5071863;28;20409;-70
2023/07/08 07:29:49;;;;;;;10.75;4.30;;;30.50;99.90;;;;;;5071183;28;20394;-70
2023/07/08 07:32:16;;;;;;;10.10;3.78;;;30.70;99.90;;;;;;5065584;28;20425;-70
2023/07/08 07:34:42;;;;;;;11.48;3.83;;;30.50;99.90;;;;;;5068929;28;20466;-71
2023/07/08 07:37:15;;;;;;;13.70;3.83;;;30.40;99.90;;;;;;5071382;28;20466;-70
2023/07/08 07:39:41;;;;;;;11.77;4.10;;;30.40;99.90;;;;;;5068676;28;20405;-71
2023/07/08 07:42:08;;;;;;;10.25;3.90;;;31.00;99.90;;;;;;5071270;28;20937;-71
2023/07/08 07:44:33;;;;;;;11.52;3.75;;;31.80;99.90;;;;;;5070959;28;20430;-71
2023/07/08 07:46:59;;;;;;;8.93;3.35;;;32.10;99.90;;;;;;5070849;28;21069;-70
2023/07/08 07:49:24;;;;;;;10.70;3.57;;;32.50;99.90;;;;;;5071575;28;20387;-71
2023/07/08 07:51:50;;;;;;;10.83;3.70;;;32.30;99.90;;;;;;5071068;28;20399;-70
2023/07/08 07:54:16;;;;;;;9.77;3.65;;;32.40;99.90;;;;;;5071713;28;20402;-70
2023/07/08 07:56:41;;;;;;;11.18;3.70;;;33.30;99.90;;;;;;5067666;28;20404;-70
2023/07/08 07:59:07;;;;;;;10.77;3.70;;;33.70;99.90;;;;;;5069314;28;20996;-70
2023/07/08 08:01:32;;;;;;;10.90;3.73;;;33.90;99.90;;;;;;5071973;28;20413;-71
2023/07/08 08:03:58;;;;;;;8.45;3.10;;;34.20;99.90;;;;;;5071982;28;20720;-71
2023/07/08 08:06:23;;;;;;;12.83;3.87;;;35.10;99.90;;;;;;5069520;28;20402;-71
2023/07/08 08:08:50;;;;;;;10.47;4.50;;;35.50;99.90;;;;;;5066265;28;20392;-71
2023/07/08 08:11:16;;;;;;;9.30;3.47;;;;;;;;;;5070395;28;20412;-71
2023/07/08 08:13:41;;;;;;;10.05;3.70;;;37.40;99.90;;;;;;5069477;28;20473;-71
2023/07/08 08:16:07;;;;;;;9.55;4.28;;;38.20;99.90;;;;;;5066187;28;20392;-71
2023/07/08 08:18:33;;;;;;;8.63;3.83;;;38.70;99.90;;;;;;5053042;28;20398;-71
2023/07/08 08:20:58;;;;;;;10.40;4.20;;;39.50;99.90;;;;;;5071065;28;20388;-72
2023/07/08 08:23:24;;;;;;;10.50;4.40;;;39.50;99.90;;;;;;5069559;28;20897;-72
2023/07/08 08:25:52;;;;;;;13.90;3.70;;;39.40;99.90;;;;;;5070960;28;20502;-72
2023/07/08 08:28:18;;;;;;;10.02;4.43;;;39.90;99.90;;;;;;5057514;28;20381;-72
2023/07/08 08:30:50;;;;;;;8.63;4.10;;;;;;;;;;5066961;28;20435;-71
2023/07/08 08:33:17;;;;;;;9.75;4.00;;;;;;;;;;5065819;28;20473;-71
2023/07/08 08:35:43;;;;;;;10.68;3.63;;;42.50;1.00;;;;;;5070122;28;20384;-72
2023/07/08 08:38:08;;;;;;;9.60;3.57;;;42.30;1.00;;;;;;5070531;28;20474;-72
2023/07/08 08:40:34;;;;;;;8.02;3.33;;;42.30;1.00;;;;;;5070044;28;20957;-72
2023/07/08 08:43:07;;;;;;;10.50;3.00;;;42.80;1.00;;;;;;5070525;28;20392;-72
2023/07/08 08:45:46;;;;;;;8.43;3.03;;;42.80;1.00;;;;;;5069748;28;20889;-71
2023/07/08 08:48:16;;;;;;;7.75;3.08;;;40.90;1.00;;;;;;5069297;28;20407;-71
2023/07/08 08:51:09;;;;;;;9.00;3.30;;;40.40;99.90;;;;;;5070032;28;20731;-72
2023/07/08 08:53:35;;;;;;;8.82;3.38;;;40.90;99.90;;;;;;5070030;28;20498;-71
2023/07/08 08:56:11;;;;;;;8.13;3.10;;;42.30;1.00;;;;;;5069943;28;20823;-71
2023/07/08 08:59:06;;;;;;;9.17;3.40;;;42.80;1.00;;;;;;5070138;28;20408;-71
2023/07/08 09:01:32;;;;;;;9.60;3.00;;;43.30;1.00;;;;;;5070204;28;20392;-71
2023/07/08 09:04:05;;;;;;;7.90;3.25;;;42.30;1.00;;;;;;5069969;28;20528;-71
2023/07/08 09:06:34;;;;;;;7.30;2.60;;;42.00;1.00;;;;;;5052602;28;20395;-71
2023/07/08 09:09:19;;;;;;;8.95;2.95;;;41.40;1.00;;;;;;5052167;28;20416;-71
2023/07/08 09:12:13;;;;;;;7.67;3.10;;;41.10;1.00;;;;;;5069916;28;20884;-71
2023/07/08 09:14:39;;;;;;;7.40;2.67;;;41.90;1.00;;;;;;5069901;28;20458;-71
2023/07/08 09:17:14;;;;;;;7.40;3.00;;;41.80;1.00;;;;;;5069907;28;20478;-71
2023/07/08 09:19:56;;;;;;;10.82;3.25;;;42.50;1.00;;;;;;5051750;28;20403;-71
2023/07/08 09:22:39;;;;;;;9.25;2.88;;;41.50;1.00;;;;;;5070223;28;20482;-71
2023/07/08 09:25:19;;;;;;;8.63;2.65;;;41.40;1.00;;;;;;5069500;28;20391;-71
2023/07/08 09:27:46;;;;;;;8.75;3.05;;;41.20;1.00;;;;;;5069590;28;20482;-71
2023/07/08 09:30:20;;;;;;;7.78;2.50;;;41.30;1.00;;;;;;5069685;28;20418;-71
2023/07/08 09:32:46;;;;;;;7.70;2.35;;;41.50;1.00;;;;;;5069367;28;20579;-71
2023/07/08 09:35:20;;;;;;;7.60;2.60;;;41.50;1.00;;;;;;5069594;28;20475;-71
2023/07/08 09:37:47;;;;;;;8.00;2.60;;;41.80;1.00;;;;;;5069592;28;20441;-71
2023/07/08 09:40:20;;;;;;;7.45;2.13;;;;;;;;;;5069739;28;20545;-71
2023/07/08 09:42:52;;;;;;;7.88;2.70;;;44.10;1.00;;;;;;5069719;28;20383;-71
2023/07/08 09:45:24;;;;;;;7.20;2.30;;;45.20;1.00;;;;;;5069544;28;20479;-72
2023/07/08 09:47:55;;;;;;;8.00;2.47;;;45.00;1.00;;;;;;5069163;28;20855;-72
2023/07/08 09:50:26;;;;;;;7.30;2.07;;;44.60;1.00;;;;;;5069991;28;20446;-71
2023/07/08 09:52:57;;;;;;;6.90;2.40;;;44.40;1.00;;;;;;5069670;28;20932;-71
2023/07/08 09:55:23;;;;;;;8.83;2.40;;;44.10;1.00;;;;;;5069670;28;20404;-71
2023/07/08 09:57:52;;;;;;;7.70;2.30;;;43.70;99.90;;;;;;5067391;28;20412;-72
2023/07/08 10:00:26;;;;;;;7.13;1.98;;;44.40;99.90;;;;;;5062539;28;20413;-72
2023/07/08 10:02:55;;;;;;;7.25;1.75;;;43.90;99.90;;;;;;5064548;28;20752;-72
2023/07/08 10:05:35;;;;;;;5.20;0.90;;;44.10;1.00;;;;;;5069608;28;20466;-71
2023/07/08 10:08:07;;;;;;;6.70;1.60;;;42.80;99.90;;;;;;5068819;28;20392;-71
2023/07/08 10:10:37;;;;;;;6.20;1.37;;;42.30;99.90;;;;;;5063430;28;20399;-72
2023/07/08 10:13:44;;;;;;;7.63;1.40;;;42.00;99.90;;;;;;5068627;28;20422;-72
2023/07/08 10:16:26;;;;;;;6.68;1.50;;;42.00;99.90;;;;;;5068163;28;20415;-71
2023/07/08 10:18:52;;;;;;;6.20;1.33;;;41.00;99.90;;;;;;5067867;28;20400;-72
2023/07/08 10:21:35;;;;;;;6.60;1.60;;;40.30;99.90;;;;;;5061951;28;20441;-72
2023/07/08 10:24:40;;;;;;;5.60;1.30;;;40.70;99.90;;;;;;5066956;28;20403;-72
2023/07/08 10:27:35;;;;;;;5.60;1.15;;;41.50;99.90;;;;;;5067203;28;20403;-72
2023/07/08 10:30:06;;;;;;;6.50;1.67;;;40.60;1.00;;;;;;5066606;28;20396;-72
2023/07/08 10:32:53;;;;;;;6.80;1.90;;;39.30;1.00;;;;;;5068720;28;20778;-72
2023/07/08 10:35:28;;;;;;;5.50;1.40;;;39.20;1.00;;;;;;5067495;28;20425;-72
2023/07/08 10:38:14;;;;;;;10.02;1.90;;;38.60;1.00;;;;;;5069420;28;20392;-71
2023/07/08 10:40:53;;;;;;;6.23;1.80;;;38.40;1.00;;;;;;5068833;28;20413;-71
2023/07/08 10:43:31;;;;;;;7.10;1.90;;;37.70;99.90;;;;;;5066450;28;20708;-72
2023/07/08 10:46:23;;;;;;;6.68;1.70;;;36.90;99.90;;;;;;5066383;28;20387;-71
2023/07/08 10:49:05;;;;;;;6.57;1.80;;;36.10;99.90;;;;;;5068676;28;20486;-71
2023/07/08 10:51:45;;;;;;;6.13;1.42;;;35.60;99.90;;;;;;5068585;28;20978;-71
2023/07/08 10:54:20;;;;;;;6.38;2.08;;;35.70;99.90;;;;;;5068695;28;20396;-71
2023/07/08 10:56:59;;;;;;;6.70;2.00;;;35.60;99.90;;;;;;5070261;28;20762;-71
2023/07/08 11:00:04;;;;;;;6.95;1.85;;;35.20;99.90;;;;;;5070346;28;20392;-71
2023/07/08 11:03:27;;;;;;;8.80;2.67;;;35.00;99.90;;;;;;5024192;28;20385;-71
2023/07/08 11:06:11;;;;;;;7.95;2.20;;;34.10;99.90;;;;;;5002155;28;20387;-71
2023/07/08 11:08:49;;;;;;;7.43;2.47;;;33.50;99.90;;;;;;5071725;28;20845;-71
2023/07/08 11:11:28;;;;;;;8.15;2.88;;;33.20;99.90;;;;;;5069112;28;20400;-70
2023/07/08 11:14:02;;;;;;;9.10;3.20;;;33.10;99.90;;;;;;5069420;28;20415;-71
2023/07/08 11:16:36;;;;;;;9.35;2.80;;;33.00;99.90;;;;;;5071971;28;20448;-71
2023/07/08 11:19:18;;;;;;;7.75;2.67;;;33.20;99.90;;;;;;5071957;28;20742;-73
2023/07/08 11:21:45;;;;;;;8.10;2.40;;;33.40;99.90;;;;;;5070418;28;20392;-72
2023/07/08 11:24:30;;;;;;;7.73;2.60;;;33.30;99.90;;;;;;5053570;28;20404;-73
2023/07/08 11:27:24;;;;;;;6.90;2.10;;;33.20;99.90;;;;;;5071674;28;20376;-73
2023/07/08 11:29:56;;;;;;;7.30;2.78;;;33.10;99.90;;;;;;5054306;28;20483;-72
2023/07/08 11:32:26;;;;;;;9.00;3.10;;;32.90;99.90;;;;;;5071835;28;20476;-72
2023/07/08 11:34:53;;;;;;;7.60;2.50;;;33.40;99.90;;;;;;5071394;28;20392;-71
2023/07/08 11:37:21;;;;;;;8.10;2.50;;;33.90;99.90;;;;;;5071963;28;20396;-71
2023/07/08 11:40:13;;;;;;;8.35;2.22;;;34.10;99.90;;;;;;5072079;28;20418;-72
2023/07/08 11:42:46;;;;;;;7.15;2.15;;;34.20;99.90;;;;;;5054786;28;20451;-71
2023/07/08 11:45:27;;;;;;;6.87;2.27;;;34.00;99.90;;;;;;5071691;28;20434;-71
2023/07/08 11:47:53;;;;;;;6.53;2.10;;;34.10;99.90;;;;;;5072849;28;20388;-71
2023/07/08 11:50:30;;;;;;;8.60;2.60;;;34.00;99.90;;;;;;5053748;28;20713;-71
2023/07/08 11:53:07;;;;;;;6.30;2.10;;;34.00;99.90;;;;;;5072618;28;20411;-72
2023/07/08 11:55:57;;;;;;;6.65;2.10;;;33.90;99.90;;;;;;5056165;28;20561;-72
2023/07/08 11:58:25;;;;;;;9.52;2.35;;;33.80;99.90;;;;;;5079267;28;20466;-72
2023/07/08 12:01:04;;;;;;;9.48;2.10;;;33.90;99.90;;;;;;5079486;28;20414;-71
2023/07/08 12:03:48;;;;;;;7.03;2.17;;;33.90;99.90;;;;;;5075824;28;20396;-72
2023/07/08 12:06:26;;;;;;;6.22;2.00;;;34.00;99.90;;;;;;5085362;28;20399;-72
2023/07/08 12:08:56;;;;;;;6.70;2.30;;;34.00;99.90;;;;;;5090469;28;20398;-72
2023/07/08 12:11:33;;;;;;;7.55;2.30;;;33.70;99.90;;;;;;5075319;28;20428;-72
2023/07/08 12:14:01;;;;;;;7.50;2.30;;;33.50;99.90;;;;;;5074406;28;20446;-72
2023/07/08 12:16:29;;;;;;;6.68;2.28;;;33.60;99.90;;;;;;5073855;28;20380;-72
2023/07/08 12:18:56;;;;;;;6.85;1.80;;;33.40;99.90;;;;;;5076769;28;20396;-72
2023/07/08 12:21:23;;;;;;;7.00;2.30;;;33.40;99.90;;;;;;5076154;28;20388;-71
2023/07/08 12:23:48;;;;;;;7.10;1.95;;;33.50;99.90;;;;;;5076035;28;20391;-71
2023/07/08 12:26:15;;;;;;;7.85;2.17;;;33.80;99.90;;;;;;5074567;28;20403;-71
2023/07/08 12:28:42;;;;;;;7.38;2.20;;;33.80;99.90;;;;;;5073815;28;20487;-71
2023/07/08 12:31:17;;;;;;;6.50;1.90;;;34.00;99.90;;;;;;5072807;28;20428;-71
2023/07/08 12:33:44;;;;;;;9.10;2.25;;;34.10;99.90;;;;;;5072118;28;20415;-71
2023/07/08 12:36:15;;;;;;;6.63;2.40;;;34.10;99.90;;;;;;5071623;28;20383;-71
2023/07/08 12:38:44;;;;;;;7.78;2.33;;;33.80;99.90;;;;;;5071547;28;20410;-71
2023/07/08 12:41:18;;;;;;;8.00;2.40;;;33.60;99.90;;;;;;5071448;28;20388;-71
2023/07/08 12:43:44;;;;;;;7.85;2.30;;;33.40;99.90;;;;;;5071228;28;20736;-71
2023/07/08 12:46:11;;;;;;;6.30;2.05;;;33.60;99.90;;;;;;5071106;28;20419;-72
2023/07/08 12:48:38;;;;;;;6.95;2.20;;;33.90;99.90;;;;;;5070615;28;20389;-72
2023/07/08 12:51:06;;;;;;;6.30;2.20;;;34.00;99.90;;;;;;5071119;28;20454;-72
2023/07/08 12:53:33;;;;;;;6.93;2.17;;;34.20;99.90;;;;;;5069952;28;20415;-71
2023/07/08 12:56:00;;;;;;;7.13;2.10;;;34.40;99.90;;;;;;5069970;28;20396;-71
2023/07/08 12:58:29;;;;;;;7.93;1.70;;;34.60;99.90;;;;;;5069817;28;20392;-71